sensor_id;sensor_type;location;lat;lon;timestamp;P1;durP1;ratioP1;P2;durP2;ratioP2
13487;SDS011;6816;48.506;9.050;2022-12-24T07:40:51;8.07;;;3.47;;
13487;SDS011;6816;48.506;9.050;2022-12-24T07:43:52;9.43;;;3.07;;
13487;SDS011;6816;48.506;9.050;2022-12-24T07:46:53;5.87;;;2.90;;
13487;SDS011;6816;48.506;9.050;2022-12-24T07:49:53;6.30;;;2.63;;
13487;SDS011;6816;48.506;9.050;2022-12-24T07:52:54;3.07;;;2.00;;
13487;SDS011;6816;48.506;9.050;2022-12-24T07:55:55;5.83;;;2.13;;
13487;SDS011;6816;48.506;9.050;2022-12-24T07:58:56;5.53;;;2.10;;
13487;SDS011;6816;48.506;9.050;2022-12-24T08:01:56;6.00;;;2.13;;
13487;SDS011;6816;48.506;9.050;2022-12-24T08:04:57;4.87;;;2.03;;
13487;SDS011;6816;48.506;9.050;2022-12-24T08:07:57;4.53;;;1.90;;
13487;SDS011;6816;48.506;9.050;2022-12-24T08:11:01;3.23;;;1.60;;
13487;SDS011;6816;48.506;9.050;2022-12-24T08:14:04;4.47;;;1.93;;
13487;SDS011;6816;48.506;9.050;2022-12-24T08:17:05;4.30;;;2.17;;
13487;SDS011;6816;48.506;9.050;2022-12-24T08:20:05;3.17;;;1.93;;
13487;SDS011;6816;48.506;9.050;2022-12-24T08:23:07;7.00;;;2.30;;
13487;SDS011;6816;48.506;9.050;2022-12-24T08:26:08;5.30;;;2.30;;
13487;SDS011;6816;48.506;9.050;2022-12-24T08:29:09;5.30;;;2.13;;
13487;SDS011;6816;48.506;9.050;2022-12-24T08:32:10;5.90;;;2.23;;
13487;SDS011;6816;48.506;9.050;2022-12-24T08:35:11;8.13;;;2.30;;
13487;SDS011;6816;48.506;9.050;2022-12-24T08:38:12;6.10;;;2.47;;
13487;SDS011;6816;48.506;9.050;2022-12-24T08:41:12;4.90;;;2.50;;
13487;SDS011;6816;48.506;9.050;2022-12-24T08:44:13;6.30;;;2.70;;
13487;SDS011;6816;48.506;9.050;2022-12-24T08:47:13;6.30;;;2.60;;
13487;SDS011;6816;48.506;9.050;2022-12-24T08:50:14;5.30;;;2.37;;
13487;SDS011;6816;48.506;9.050;2022-12-24T08:53:15;7.87;;;2.83;;
13487;SDS011;6816;48.506;9.050;2022-12-24T08:56:15;7.93;;;2.70;;
13487;SDS011;6816;48.506;9.050;2022-12-24T08:59:16;6.80;;;2.30;;
13487;SDS011;6816;48.506;9.050;2022-12-24T09:02:17;5.33;;;2.40;;
13487;SDS011;6816;48.506;9.050;2022-12-24T09:05:17;8.23;;;3.03;;
13487;SDS011;6816;48.506;9.050;2022-12-24T09:08:19;5.43;;;2.43;;
13487;SDS011;6816;48.506;9.050;2022-12-24T09:11:20;7.80;;;2.87;;
13487;SDS011;6816;48.506;9.050;2022-12-24T09:14:21;7.43;;;2.60;;
13487;SDS011;6816;48.506;9.050;2022-12-24T09:17:22;6.13;;;2.60;;
13487;SDS011;6816;48.506;9.050;2022-12-24T09:20:22;7.00;;;2.23;;
13487;SDS011;6816;48.506;9.050;2022-12-24T09:23:23;7.30;;;2.17;;
13487;SDS011;6816;48.506;9.050;2022-12-24T09:26:24;9.13;;;2.37;;
13487;SDS011;6816;48.506;9.050;2022-12-24T09:29:26;4.93;;;1.77;;
13487;SDS011;6816;48.506;9.050;2022-12-24T09:32:26;5.57;;;2.10;;
13487;SDS011;6816;48.506;9.050;2022-12-24T09:35:27;5.60;;;2.10;;
13487;SDS011;6816;48.506;9.050;2022-12-24T09:38:27;4.97;;;2.17;;
13487;SDS011;6816;48.506;9.050;2022-12-24T09:47:53;5.13;;;2.13;;
13487;SDS011;6816;48.506;9.050;2022-12-24T09:51:04;9.20;;;1.80;;
13487;SDS011;6816;48.506;9.050;2022-12-24T09:57:33;5.87;;;1.80;;
13487;SDS011;6816;48.506;9.050;2022-12-24T10:00:36;3.87;;;1.50;;
13487;SDS011;6816;48.506;9.050;2022-12-24T10:03:37;7.60;;;2.10;;
13487;SDS011;6816;48.506;9.050;2022-12-24T10:06:49;6.10;;;1.60;;
13487;SDS011;6816;48.506;9.050;2022-12-24T10:23:04;6.63;;;1.70;;
13487;SDS011;6816;48.506;9.050;2022-12-24T10:29:46;4.20;;;1.30;;
13487;SDS011;6816;48.506;9.050;2022-12-24T10:32:51;6.43;;;1.80;;
13487;SDS011;6816;48.506;9.050;2022-12-24T10:35:53;7.73;;;1.70;;
13487;SDS011;6816;48.506;9.050;2022-12-24T10:38:55;4.13;;;1.37;;
13487;SDS011;6816;48.506;9.050;2022-12-24T10:41:57;6.07;;;1.67;;
13487;SDS011;6816;48.506;9.050;2022-12-24T10:45:00;3.70;;;1.30;;
13487;SDS011;6816;48.506;9.050;2022-12-24T10:48:07;7.40;;;1.67;;
13487;SDS011;6816;48.506;9.050;2022-12-24T10:51:25;5.67;;;1.60;;
13487;SDS011;6816;48.506;9.050;2022-12-24T10:58:12;4.57;;;1.60;;
13487;SDS011;6816;48.506;9.050;2022-12-24T11:01:19;7.33;;;1.67;;
13487;SDS011;6816;48.506;9.050;2022-12-24T11:04:44;7.03;;;1.40;;
13487;SDS011;6816;48.506;9.050;2022-12-24T11:07:47;5.77;;;2.20;;
13487;SDS011;6816;48.506;9.050;2022-12-24T11:11:07;6.53;;;1.47;;
13487;SDS011;6816;48.506;9.050;2022-12-24T11:14:13;7.93;;;2.00;;
13487;SDS011;6816;48.506;9.050;2022-12-24T11:17:20;3.83;;;1.27;;
13487;SDS011;6816;48.506;9.050;2022-12-24T11:20:25;5.30;;;1.50;;
13487;SDS011;6816;48.506;9.050;2022-12-24T11:23:27;7.03;;;1.77;;
13487;SDS011;6816;48.506;9.050;2022-12-24T11:26:29;5.33;;;1.87;;
13487;SDS011;6816;48.506;9.050;2022-12-24T11:29:30;4.87;;;1.57;;
13487;SDS011;6816;48.506;9.050;2022-12-24T11:32:30;6.27;;;2.03;;
13487;SDS011;6816;48.506;9.050;2022-12-24T11:35:32;6.77;;;2.00;;
13487;SDS011;6816;48.506;9.050;2022-12-24T11:38:38;6.80;;;1.70;;
13487;SDS011;6816;48.506;9.050;2022-12-24T11:41:39;8.00;;;1.90;;
13487;SDS011;6816;48.506;9.050;2022-12-24T11:44:45;3.77;;;1.70;;
13487;SDS011;6816;48.506;9.050;2022-12-24T11:47:48;6.40;;;1.90;;
13487;SDS011;6816;48.506;9.050;2022-12-24T11:50:54;6.80;;;2.10;;
13487;SDS011;6816;48.506;9.050;2022-12-24T11:54:16;7.90;;;2.10;;
13487;SDS011;6816;48.506;9.050;2022-12-24T11:57:23;4.63;;;1.70;;
13487;SDS011;6816;48.506;9.050;2022-12-24T12:00:27;7.10;;;1.53;;
13487;SDS011;6816;48.506;9.050;2022-12-24T12:03:30;11.80;;;1.73;;
13487;SDS011;6816;48.506;9.050;2022-12-24T12:06:36;9.13;;;1.77;;
13487;SDS011;6816;48.506;9.050;2022-12-24T12:10:05;6.20;;;1.57;;
13487;SDS011;6816;48.506;9.050;2022-12-24T12:13:11;4.40;;;1.73;;
13487;SDS011;6816;48.506;9.050;2022-12-24T12:19:53;6.67;;;2.23;;
13487;SDS011;6816;48.506;9.050;2022-12-24T12:22:54;5.27;;;1.67;;
13487;SDS011;6816;48.506;9.050;2022-12-24T12:26:25;6.67;;;1.70;;
13487;SDS011;6816;48.506;9.050;2022-12-24T12:29:32;5.47;;;1.60;;
13487;SDS011;6816;48.506;9.050;2022-12-24T12:32:44;4.77;;;1.53;;
13487;SDS011;6816;48.506;9.050;2022-12-24T12:36:21;7.60;;;1.53;;
13487;SDS011;6816;48.506;9.050;2022-12-24T12:39:47;5.47;;;1.70;;
13487;SDS011;6816;48.506;9.050;2022-12-24T12:42:52;7.00;;;1.70;;
13487;SDS011;6816;48.506;9.050;2022-12-24T12:46:04;4.53;;;1.43;;
13487;SDS011;6816;48.506;9.050;2022-12-24T12:56:30;7.10;;;2.57;;
13487;SDS011;6816;48.506;9.050;2022-12-24T12:59:36;7.77;;;2.27;;
13487;SDS011;6816;48.506;9.050;2022-12-24T13:06:29;5.07;;;1.27;;
13487;SDS011;6816;48.506;9.050;2022-12-24T13:16:36;5.23;;;2.00;;
13487;SDS011;6816;48.506;9.050;2022-12-24T13:23:13;15.23;;;7.77;;
13487;SDS011;6816;48.506;9.050;2022-12-24T13:26:19;6.20;;;3.57;;
13487;SDS011;6816;48.506;9.050;2022-12-24T13:29:30;5.77;;;2.73;;
13487;SDS011;6816;48.506;9.050;2022-12-24T13:32:36;8.73;;;2.33;;
13487;SDS011;6816;48.506;9.050;2022-12-24T13:35:55;3.93;;;2.20;;
13487;SDS011;6816;48.506;9.050;2022-12-24T13:39:01;4.60;;;2.33;;
13487;SDS011;6816;48.506;9.050;2022-12-24T13:42:01;5.93;;;1.50;;
13487;SDS011;6816;48.506;9.050;2022-12-24T13:48:28;5.03;;;1.67;;
13487;SDS011;6816;48.506;9.050;2022-12-24T13:51:32;4.27;;;1.57;;
13487;SDS011;6816;48.506;9.050;2022-12-24T13:54:32;6.60;;;1.53;;
13487;SDS011;6816;48.506;9.050;2022-12-24T13:57:36;5.87;;;1.50;;
13487;SDS011;6816;48.506;9.050;2022-12-24T14:00:38;4.13;;;1.30;;
13487;SDS011;6816;48.506;9.050;2022-12-24T14:03:51;8.03;;;2.00;;
13487;SDS011;6816;48.506;9.050;2022-12-24T14:06:57;4.17;;;1.30;;
13487;SDS011;6816;48.506;9.050;2022-12-24T14:10:00;7.70;;;1.70;;
13487;SDS011;6816;48.506;9.050;2022-12-24T14:13:01;5.43;;;1.60;;
13487;SDS011;6816;48.506;9.050;2022-12-24T14:16:02;5.17;;;2.70;;
13487;SDS011;6816;48.506;9.050;2022-12-24T14:19:23;9.43;;;3.60;;
13487;SDS011;6816;48.506;9.050;2022-12-24T14:25:39;15.00;;;8.30;;
13487;SDS011;6816;48.506;9.050;2022-12-24T14:29:04;14.33;;;8.73;;
13487;SDS011;6816;48.506;9.050;2022-12-24T14:32:11;11.67;;;7.40;;
13487;SDS011;6816;48.506;9.050;2022-12-24T14:38:22;9.33;;;5.77;;
13487;SDS011;6816;48.506;9.050;2022-12-24T14:45:11;8.80;;;4.70;;
13487;SDS011;6816;48.506;9.050;2022-12-24T14:51:56;7.50;;;3.17;;
13487;SDS011;6816;48.506;9.050;2022-12-24T14:58:38;7.57;;;2.60;;
13487;SDS011;6816;48.506;9.050;2022-12-24T15:01:39;7.00;;;3.37;;
13487;SDS011;6816;48.506;9.050;2022-12-24T15:04:40;5.37;;;2.70;;
13487;SDS011;6816;48.506;9.050;2022-12-24T15:07:42;4.97;;;3.07;;
13487;SDS011;6816;48.506;9.050;2022-12-24T15:10:49;8.10;;;3.80;;
13487;SDS011;6816;48.506;9.050;2022-12-24T15:13:53;6.33;;;2.80;;
13487;SDS011;6816;48.506;9.050;2022-12-24T15:17:00;6.53;;;3.10;;
13487;SDS011;6816;48.506;9.050;2022-12-24T15:20:03;4.93;;;2.80;;
13487;SDS011;6816;48.506;9.050;2022-12-24T15:23:04;4.70;;;2.87;;
13487;SDS011;6816;48.506;9.050;2022-12-24T15:26:06;5.83;;;3.10;;
13487;SDS011;6816;48.506;9.050;2022-12-24T15:29:15;5.87;;;2.90;;
13487;SDS011;6816;48.506;9.050;2022-12-24T15:32:20;6.60;;;2.73;;
13487;SDS011;6816;48.506;9.050;2022-12-24T15:35:28;8.20;;;2.83;;
13487;SDS011;6816;48.506;9.050;2022-12-24T15:38:36;6.03;;;2.53;;
13487;SDS011;6816;48.506;9.050;2022-12-24T15:41:39;5.60;;;2.63;;
13487;SDS011;6816;48.506;9.050;2022-12-24T15:45:04;5.23;;;2.87;;
13487;SDS011;6816;48.506;9.050;2022-12-24T15:48:22;5.37;;;2.80;;
13487;SDS011;6816;48.506;9.050;2022-12-24T15:51:29;9.27;;;3.37;;
13487;SDS011;6816;48.506;9.050;2022-12-24T15:54:33;5.60;;;3.23;;
13487;SDS011;6816;48.506;9.050;2022-12-24T15:57:34;7.03;;;3.53;;
13487;SDS011;6816;48.506;9.050;2022-12-24T16:00:35;9.37;;;4.10;;
13487;SDS011;6816;48.506;9.050;2022-12-24T16:03:55;6.87;;;4.60;;
13487;SDS011;6816;48.506;9.050;2022-12-24T16:07:01;4.93;;;3.63;;
13487;SDS011;6816;48.506;9.050;2022-12-24T16:10:03;9.27;;;3.70;;
13487;SDS011;6816;48.506;9.050;2022-12-24T16:16:14;5.37;;;2.90;;
13487;SDS011;6816;48.506;9.050;2022-12-24T16:19:28;5.70;;;2.80;;
13487;SDS011;6816;48.506;9.050;2022-12-24T16:22:31;5.03;;;2.70;;
13487;SDS011;6816;48.506;9.050;2022-12-24T16:25:34;6.33;;;3.20;;
13487;SDS011;6816;48.506;9.050;2022-12-24T16:28:34;9.37;;;3.20;;
13487;SDS011;6816;48.506;9.050;2022-12-24T16:31:36;8.30;;;2.83;;
13487;SDS011;6816;48.506;9.050;2022-12-24T16:34:42;4.53;;;2.67;;
13487;SDS011;6816;48.506;9.050;2022-12-24T16:37:42;7.80;;;2.50;;
13487;SDS011;6816;48.506;9.050;2022-12-24T16:40:43;4.67;;;2.30;;
13487;SDS011;6816;48.506;9.050;2022-12-24T16:43:43;5.83;;;2.80;;
13487;SDS011;6816;48.506;9.050;2022-12-24T16:46:51;5.73;;;2.50;;
13487;SDS011;6816;48.506;9.050;2022-12-24T16:49:53;7.00;;;4.27;;
13487;SDS011;6816;48.506;9.050;2022-12-24T16:52:54;7.60;;;4.80;;
13487;SDS011;6816;48.506;9.050;2022-12-24T16:55:55;9.13;;;6.00;;
13487;SDS011;6816;48.506;9.050;2022-12-24T16:58:55;11.73;;;6.87;;
13487;SDS011;6816;48.506;9.050;2022-12-24T17:01:56;8.23;;;6.30;;
13487;SDS011;6816;48.506;9.050;2022-12-24T17:04:56;12.00;;;6.77;;
13487;SDS011;6816;48.506;9.050;2022-12-24T17:08:00;11.00;;;6.47;;
13487;SDS011;6816;48.506;9.050;2022-12-24T17:11:01;8.60;;;5.90;;
13487;SDS011;6816;48.506;9.050;2022-12-24T17:14:01;7.97;;;4.60;;
13487;SDS011;6816;48.506;9.050;2022-12-24T17:17:02;8.40;;;4.77;;
13487;SDS011;6816;48.506;9.050;2022-12-24T17:20:04;8.80;;;4.70;;
13487;SDS011;6816;48.506;9.050;2022-12-24T17:23:05;8.07;;;4.77;;
13487;SDS011;6816;48.506;9.050;2022-12-24T17:26:06;6.10;;;4.27;;
13487;SDS011;6816;48.506;9.050;2022-12-24T17:29:07;8.47;;;4.73;;
13487;SDS011;6816;48.506;9.050;2022-12-24T17:32:09;6.53;;;4.30;;
13487;SDS011;6816;48.506;9.050;2022-12-24T17:35:09;6.53;;;4.23;;
13487;SDS011;6816;48.506;9.050;2022-12-24T17:38:10;9.37;;;4.27;;
13487;SDS011;6816;48.506;9.050;2022-12-24T17:41:11;6.37;;;4.30;;
13487;SDS011;6816;48.506;9.050;2022-12-24T17:44:14;7.13;;;4.20;;
13487;SDS011;6816;48.506;9.050;2022-12-24T17:47:15;4.60;;;3.53;;
13487;SDS011;6816;48.506;9.050;2022-12-24T17:50:16;7.87;;;4.87;;
13487;SDS011;6816;48.506;9.050;2022-12-24T17:53:16;8.90;;;4.83;;
13487;SDS011;6816;48.506;9.050;2022-12-24T17:56:17;7.10;;;4.33;;
13487;SDS011;6816;48.506;9.050;2022-12-24T17:59:17;10.60;;;5.33;;
13487;SDS011;6816;48.506;9.050;2022-12-24T18:02:18;9.90;;;5.27;;
13487;SDS011;6816;48.506;9.050;2022-12-24T18:05:19;8.90;;;5.50;;
13487;SDS011;6816;48.506;9.050;2022-12-24T18:08:19;10.30;;;6.83;;
13487;SDS011;6816;48.506;9.050;2022-12-24T18:11:28;10.40;;;6.33;;
13487;SDS011;6816;48.506;9.050;2022-12-24T18:14:32;9.27;;;6.40;;
13487;SDS011;6816;48.506;9.050;2022-12-24T18:17:33;9.07;;;6.23;;
13487;SDS011;6816;48.506;9.050;2022-12-24T18:20:34;9.60;;;6.27;;
13487;SDS011;6816;48.506;9.050;2022-12-24T18:23:35;10.17;;;6.83;;
13487;SDS011;6816;48.506;9.050;2022-12-24T18:26:36;10.40;;;6.83;;
13487;SDS011;6816;48.506;9.050;2022-12-24T18:29:37;11.00;;;6.60;;
13487;SDS011;6816;48.506;9.050;2022-12-24T18:32:40;11.20;;;6.87;;
13487;SDS011;6816;48.506;9.050;2022-12-24T18:35:41;8.13;;;6.60;;
13487;SDS011;6816;48.506;9.050;2022-12-24T18:38:41;11.93;;;8.40;;
13487;SDS011;6816;48.506;9.050;2022-12-24T18:41:42;14.73;;;10.07;;
13487;SDS011;6816;48.506;9.050;2022-12-24T18:44:43;14.67;;;9.70;;
13487;SDS011;6816;48.506;9.050;2022-12-24T18:47:44;13.87;;;9.13;;
13487;SDS011;6816;48.506;9.050;2022-12-24T18:50:52;13.00;;;8.37;;
13487;SDS011;6816;48.506;9.050;2022-12-24T18:53:57;9.47;;;6.90;;
13487;SDS011;6816;48.506;9.050;2022-12-24T18:56:58;10.17;;;6.97;;
13487;SDS011;6816;48.506;9.050;2022-12-24T18:59:58;12.13;;;8.23;;
13487;SDS011;6816;48.506;9.050;2022-12-24T19:02:59;10.10;;;7.03;;
13487;SDS011;6816;48.506;9.050;2022-12-24T19:06:00;11.43;;;7.23;;
13487;SDS011;6816;48.506;9.050;2022-12-24T19:09:01;9.97;;;6.20;;
13487;SDS011;6816;48.506;9.050;2022-12-24T19:12:02;10.37;;;5.93;;
13487;SDS011;6816;48.506;9.050;2022-12-24T19:15:04;9.17;;;5.40;;
13487;SDS011;6816;48.506;9.050;2022-12-24T19:18:05;8.60;;;5.73;;
13487;SDS011;6816;48.506;9.050;2022-12-24T19:21:06;8.13;;;5.60;;
13487;SDS011;6816;48.506;9.050;2022-12-24T19:24:08;7.73;;;5.97;;
13487;SDS011;6816;48.506;9.050;2022-12-24T19:27:09;9.03;;;5.77;;
13487;SDS011;6816;48.506;9.050;2022-12-24T19:30:10;5.63;;;4.57;;
13487;SDS011;6816;48.506;9.050;2022-12-24T19:33:12;5.97;;;4.00;;
13487;SDS011;6816;48.506;9.050;2022-12-24T19:36:14;6.47;;;4.60;;
13487;SDS011;6816;48.506;9.050;2022-12-24T19:39:19;8.17;;;4.70;;
13487;SDS011;6816;48.506;9.050;2022-12-24T19:42:20;4.70;;;3.93;;
13487;SDS011;6816;48.506;9.050;2022-12-24T19:45:21;4.80;;;3.53;;
13487;SDS011;6816;48.506;9.050;2022-12-24T19:48:22;5.77;;;3.73;;
13487;SDS011;6816;48.506;9.050;2022-12-24T19:51:23;4.07;;;3.60;;
13487;SDS011;6816;48.506;9.050;2022-12-24T19:54:25;8.50;;;4.37;;
13487;SDS011;6816;48.506;9.050;2022-12-24T19:57:25;6.57;;;5.07;;
13487;SDS011;6816;48.506;9.050;2022-12-24T20:00:26;13.93;;;8.37;;
13487;SDS011;6816;48.506;9.050;2022-12-24T20:03:27;9.70;;;7.27;;
13487;SDS011;6816;48.506;9.050;2022-12-24T20:06:29;9.27;;;6.03;;
13487;SDS011;6816;48.506;9.050;2022-12-24T20:09:31;7.20;;;4.83;;
13487;SDS011;6816;48.506;9.050;2022-12-24T20:12:32;6.63;;;5.13;;
13487;SDS011;6816;48.506;9.050;2022-12-24T20:15:37;6.00;;;4.53;;
13487;SDS011;6816;48.506;9.050;2022-12-24T20:18:39;6.17;;;4.30;;
13487;SDS011;6816;48.506;9.050;2022-12-24T20:21:39;7.83;;;4.77;;
13487;SDS011;6816;48.506;9.050;2022-12-24T20:24:40;5.70;;;4.10;;
13487;SDS011;6816;48.506;9.050;2022-12-24T20:27:40;4.70;;;3.63;;
13487;SDS011;6816;48.506;9.050;2022-12-24T20:30:41;6.23;;;4.23;;
13487;SDS011;6816;48.506;9.050;2022-12-24T20:33:42;6.23;;;3.77;;
13487;SDS011;6816;48.506;9.050;2022-12-24T20:36:44;7.03;;;5.00;;
13487;SDS011;6816;48.506;9.050;2022-12-24T20:39:44;8.03;;;5.93;;
13487;SDS011;6816;48.506;9.050;2022-12-24T20:42:45;8.10;;;6.10;;
13487;SDS011;6816;48.506;9.050;2022-12-24T20:45:53;7.50;;;6.07;;
13487;SDS011;6816;48.506;9.050;2022-12-24T20:48:55;8.83;;;7.33;;
13487;SDS011;6816;48.506;9.050;2022-12-24T20:51:56;9.87;;;7.30;;
13487;SDS011;6816;48.506;9.050;2022-12-24T20:54:57;11.23;;;6.00;;
13487;SDS011;6816;48.506;9.050;2022-12-24T20:57:57;8.77;;;6.57;;
13487;SDS011;6816;48.506;9.050;2022-12-24T21:00:59;9.47;;;7.17;;
13487;SDS011;6816;48.506;9.050;2022-12-24T21:03:59;9.73;;;6.57;;
13487;SDS011;6816;48.506;9.050;2022-12-24T21:07:03;9.20;;;6.57;;
13487;SDS011;6816;48.506;9.050;2022-12-24T21:10:05;9.73;;;6.57;;
13487;SDS011;6816;48.506;9.050;2022-12-24T21:13:06;8.30;;;5.60;;
13487;SDS011;6816;48.506;9.050;2022-12-24T21:16:07;6.60;;;5.50;;
13487;SDS011;6816;48.506;9.050;2022-12-24T21:19:09;8.17;;;5.63;;
13487;SDS011;6816;48.506;9.050;2022-12-24T21:22:12;7.93;;;5.73;;
13487;SDS011;6816;48.506;9.050;2022-12-24T21:25:13;7.07;;;4.90;;
13487;SDS011;6816;48.506;9.050;2022-12-24T21:28:14;4.03;;;3.63;;
13487;SDS011;6816;48.506;9.050;2022-12-24T21:31:16;5.40;;;3.70;;
13487;SDS011;6816;48.506;9.050;2022-12-24T21:34:17;4.23;;;3.37;;
13487;SDS011;6816;48.506;9.050;2022-12-24T21:37:18;3.93;;;3.57;;
13487;SDS011;6816;48.506;9.050;2022-12-24T21:40:19;4.70;;;3.17;;
13487;SDS011;6816;48.506;9.050;2022-12-24T21:43:20;5.70;;;3.40;;
13487;SDS011;6816;48.506;9.050;2022-12-24T21:46:21;4.80;;;4.30;;
13487;SDS011;6816;48.506;9.050;2022-12-24T21:49:23;6.07;;;3.40;;
13487;SDS011;6816;48.506;9.050;2022-12-24T21:52:43;6.00;;;3.53;;
13487;SDS011;6816;48.506;9.050;2022-12-24T21:55:43;4.77;;;3.20;;
13487;SDS011;6816;48.506;9.050;2022-12-24T21:58:44;4.80;;;3.67;;
13487;SDS011;6816;48.506;9.050;2022-12-24T22:01:44;5.40;;;3.43;;
13487;SDS011;6816;48.506;9.050;2022-12-24T22:04:45;7.43;;;3.80;;
13487;SDS011;6816;48.506;9.050;2022-12-24T22:07:46;5.43;;;3.30;;
13487;SDS011;6816;48.506;9.050;2022-12-24T22:11:07;4.37;;;2.97;;
13487;SDS011;6816;48.506;9.050;2022-12-24T22:14:31;5.67;;;2.73;;
13487;SDS011;6816;48.506;9.050;2022-12-24T22:17:32;3.10;;;2.73;;
13487;SDS011;6816;48.506;9.050;2022-12-24T22:20:34;4.50;;;2.90;;
13487;SDS011;6816;48.506;9.050;2022-12-24T22:23:35;5.30;;;3.20;;
13487;SDS011;6816;48.506;9.050;2022-12-24T22:26:36;6.60;;;3.10;;
13487;SDS011;6816;48.506;9.050;2022-12-24T22:29:36;4.57;;;3.40;;
13487;SDS011;6816;48.506;9.050;2022-12-24T22:32:37;4.07;;;3.30;;
13487;SDS011;6816;48.506;9.050;2022-12-24T22:35:38;6.13;;;3.67;;
13487;SDS011;6816;48.506;9.050;2022-12-24T22:38:42;5.20;;;4.03;;
13487;SDS011;6816;48.506;9.050;2022-12-24T22:41:43;4.03;;;3.03;;
13487;SDS011;6816;48.506;9.050;2022-12-24T22:44:45;7.47;;;3.20;;
13487;SDS011;6816;48.506;9.050;2022-12-24T22:47:47;5.17;;;2.83;;
13487;SDS011;6816;48.506;9.050;2022-12-24T22:50:48;4.40;;;3.00;;
13487;SDS011;6816;48.506;9.050;2022-12-24T22:53:48;4.47;;;3.40;;
13487;SDS011;6816;48.506;9.050;2022-12-24T22:56:49;4.93;;;3.77;;
13487;SDS011;6816;48.506;9.050;2022-12-24T22:59:50;4.10;;;3.20;;
13487;SDS011;6816;48.506;9.050;2022-12-24T23:02:50;5.93;;;3.13;;
13487;SDS011;6816;48.506;9.050;2022-12-24T23:05:55;3.13;;;2.73;;
13487;SDS011;6816;48.506;9.050;2022-12-24T23:08:56;5.07;;;3.00;;
13487;SDS011;6816;48.506;9.050;2022-12-24T23:11:57;5.63;;;3.90;;
13487;SDS011;6816;48.506;9.050;2022-12-24T23:14:58;4.37;;;3.97;;
13487;SDS011;6816;48.506;9.050;2022-12-24T23:17:58;5.33;;;4.43;;
13487;SDS011;6816;48.506;9.050;2022-12-24T23:21:02;7.63;;;5.33;;
13487;SDS011;6816;48.506;9.050;2022-12-24T23:24:07;8.23;;;4.43;;
13487;SDS011;6816;48.506;9.050;2022-12-24T23:27:09;4.80;;;3.60;;
13487;SDS011;6816;48.506;9.050;2022-12-24T23:30:10;5.63;;;4.33;;
13487;SDS011;6816;48.506;9.050;2022-12-24T23:33:10;6.93;;;4.90;;
13487;SDS011;6816;48.506;9.050;2022-12-24T23:36:11;6.63;;;3.97;;
13487;SDS011;6816;48.506;9.050;2022-12-24T23:39:12;5.70;;;4.20;;
13487;SDS011;6816;48.506;9.050;2022-12-24T23:42:13;5.13;;;3.60;;
13487;SDS011;6816;48.506;9.050;2022-12-24T23:45:14;6.93;;;3.93;;
13487;SDS011;6816;48.506;9.050;2022-12-24T23:48:14;6.80;;;5.03;;
13487;SDS011;6816;48.506;9.050;2022-12-24T23:51:16;9.40;;;5.17;;
13487;SDS011;6816;48.506;9.050;2022-12-24T23:54:21;7.60;;;4.83;;
13487;SDS011;6816;48.506;9.050;2022-12-24T23:57:22;6.10;;;5.10;;
